Abis Cuxhaven — PBYB — position and weather

sailwx.info

Track history (hours):
 
Tides and Currents Weather Stations Pressure Air Temp Water Temp Dewpoint Dewpoint Depression Visibility Wind Speed Wind Dir Waves Ship Positions

Abis Cuxhaven

Last reported at 2015-Mar-24 13:11 UTC. Time now 2015-Mar-28 14:27 UTC.
Position N 37°31' W 001°02'.

Length 114 m; draft 3.8 m.

Type: Cargo ship. MMSI: 246670000.

Date/timePositionNaut miles runAvg speedWind from/ knotsBaromVisibWave heightAir tempDewpointWater temp
2015-Mar-24 13:11N 37°31' W 001°02'4 6.8
2015-Mar-24 12:33N 37°34' W 000°58'0 0.1
2015-Mar-24 11:29N 37°34' W 000°58'0 0.0
2015-Mar-24 10:05N 37°34' W 000°58'0 0.0
2015-Mar-24 09:29N 37°34' W 000°58'0 0.0
2015-Mar-24 08:29N 37°34' W 000°58'0 0.0
2015-Mar-24 06:30N 37°34' W 000°58'0 0.0
2015-Mar-24 05:30N 37°34' W 000°58'0 0.0
2015-Mar-24 04:30N 37°34' W 000°58'0 0.0
2015-Mar-24 03:30N 37°34' W 000°58'0 0.0
2015-Mar-24 02:29N 37°34' W 000°58'0 0.0
2015-Mar-24 01:29N 37°34' W 000°58'1 0.0
2015-Mar-22 17:18N 37°34' W 000°57'0 0.0
2015-Mar-22 16:12N 37°34' W 000°57'0 0.0
2015-Mar-22 07:25N 37°34' W 000°57'0 0.0
2015-Mar-22 04:31N 37°34' W 000°57'0 0.0
2015-Mar-22 02:31N 37°34' W 000°57'0 0.0
2015-Mar-21 17:13N 37°34' W 000°57'0 0.0
2015-Mar-21 13:29N 37°34' W 000°57'2 0.3
2015-Mar-21 05:17N 37°34' W 001°00'0 0.0
2015-Mar-20 19:29N 37°34' W 001°00'4 4.3
2015-Mar-20 18:33N 37°32' W 001°04'9 9.3
2015-Mar-20 17:33N 37°26' W 001°13'12 9.1
2015-Mar-20 16:14N 37°18' W 001°24'200 7.5
2015-Mar-19 13:34N 35°60' W 005°13'1111.0
2015-Mar-19 12:34N 35°58' W 005°26'260 8.1
2015-Mar-18 04:30N 38°20' W 009°60'9 9.8
2015-Mar-18 03:34N 38°29' W 010°02'10 9.7
2015-Mar-18 02:34N 38°39' W 010°04'10 9.9
2015-Mar-18 01:33N 38°49' W 010°05'12 9.6
2015-Mar-18 00:18N 39°01' W 010°05'18 9.7
2015-Mar-17 22:26N 39°19' W 010°05'  
Track history (hours):
 
Tides and Currents Weather Stations Pressure Air Temp Water Temp Dewpoint Dewpoint Depression Visibility Wind Speed Wind Dir Waves Ship Positions

Abis Cuxhaven

Last reported at 2015-Mar-24 13:11 UTC. Time now 2015-Mar-28 14:27 UTC.
Position N 37°31' W 001°02'.

Length 114 m; draft 3.8 m.

Type: Cargo ship. MMSI: 246670000.

Date/timePositionNaut miles runAvg speedWind from/ knotsBaromVisibWave heightAir tempDewpointWater temp
2015-Mar-24 13:11N 37°31' W 001°02'4 6.8
2015-Mar-24 12:33N 37°34' W 000°58'0 0.1
2015-Mar-24 11:29N 37°34' W 000°58'0 0.0
2015-Mar-24 10:05N 37°34' W 000°58'0 0.0
2015-Mar-24 09:29N 37°34' W 000°58'0 0.0
2015-Mar-24 08:29N 37°34' W 000°58'0 0.0
2015-Mar-24 06:30N 37°34' W 000°58'0 0.0
2015-Mar-24 05:30N 37°34' W 000°58'0 0.0
2015-Mar-24 04:30N 37°34' W 000°58'0 0.0
2015-Mar-24 03:30N 37°34' W 000°58'0 0.0
2015-Mar-24 02:29N 37°34' W 000°58'0 0.0
2015-Mar-24 01:29N 37°34' W 000°58'1 0.0
2015-Mar-22 17:18N 37°34' W 000°57'0 0.0
2015-Mar-22 16:12N 37°34' W 000°57'0 0.0
2015-Mar-22 07:25N 37°34' W 000°57'0 0.0
2015-Mar-22 04:31N 37°34' W 000°57'0 0.0
2015-Mar-22 02:31N 37°34' W 000°57'0 0.0
2015-Mar-21 17:13N 37°34' W 000°57'0 0.0
2015-Mar-21 13:29N 37°34' W 000°57'2 0.3
2015-Mar-21 05:17N 37°34' W 001°00'0 0.0
2015-Mar-20 19:29N 37°34' W 001°00'4 4.3
2015-Mar-20 18:33N 37°32' W 001°04'9 9.3
2015-Mar-20 17:33N 37°26' W 001°13'12 9.1
2015-Mar-20 16:14N 37°18' W 001°24'200 7.5
2015-Mar-19 13:34N 35°60' W 005°13'1111.0
2015-Mar-19 12:34N 35°58' W 005°26'260 8.1
2015-Mar-18 04:30N 38°20' W 009°60'9 9.8
2015-Mar-18 03:34N 38°29' W 010°02'10 9.7
2015-Mar-18 02:34N 38°39' W 010°04'10 9.9
2015-Mar-18 01:33N 38°49' W 010°05'12 9.6
2015-Mar-18 00:18N 39°01' W 010°05'18 9.7
2015-Mar-17 22:26N 39°19' W 010°05'  

Dump ship's entire track history